sensor_id;sensor_type;location;lat;lon;timestamp;P1;durP1;ratioP1;P2;durP2;ratioP2
1682;SDS011;13252;53.596;10.060;2022-07-09T00:01:04;18.77;;;5.07;;
1682;SDS011;13252;53.596;10.060;2022-07-09T00:03:32;10.37;;;4.50;;
1682;SDS011;13252;53.596;10.060;2022-07-09T00:06:00;12.10;;;4.43;;
1682;SDS011;13252;53.596;10.060;2022-07-09T00:08:30;14.33;;;4.40;;
1682;SDS011;13252;53.596;10.060;2022-07-09T00:10:59;24.97;;;5.20;;
1682;SDS011;13252;53.596;10.060;2022-07-09T00:13:26;22.40;;;6.07;;
1682;SDS011;13252;53.596;10.060;2022-07-09T00:15:54;11.87;;;4.40;;
1682;SDS011;13252;53.596;10.060;2022-07-09T00:18:22;12.03;;;4.47;;
1682;SDS011;13252;53.596;10.060;2022-07-09T00:20:50;16.53;;;4.80;;
1682;SDS011;13252;53.596;10.060;2022-07-09T00:23:18;12.50;;;4.60;;
1682;SDS011;13252;53.596;10.060;2022-07-09T00:25:47;19.90;;;4.97;;
1682;SDS011;13252;53.596;10.060;2022-07-09T00:28:15;22.53;;;5.70;;
1682;SDS011;13252;53.596;10.060;2022-07-09T00:30:42;14.40;;;4.77;;
1682;SDS011;13252;53.596;10.060;2022-07-09T00:33:10;12.67;;;4.67;;
1682;SDS011;13252;53.596;10.060;2022-07-09T00:35:38;17.87;;;5.00;;
1682;SDS011;13252;53.596;10.060;2022-07-09T00:38:05;14.93;;;5.53;;
1682;SDS011;13252;53.596;10.060;2022-07-09T00:40:33;12.87;;;4.40;;
1682;SDS011;13252;53.596;10.060;2022-07-09T00:43:02;22.03;;;5.50;;
1682;SDS011;13252;53.596;10.060;2022-07-09T00:45:30;18.17;;;5.50;;
1682;SDS011;13252;53.596;10.060;2022-07-09T00:47:58;11.57;;;5.47;;
1682;SDS011;13252;53.596;10.060;2022-07-09T00:50:25;17.63;;;5.43;;
1682;SDS011;13252;53.596;10.060;2022-07-09T00:52:53;12.57;;;4.47;;
1682;SDS011;13252;53.596;10.060;2022-07-09T00:55:21;19.73;;;5.57;;
1682;SDS011;13252;53.596;10.060;2022-07-09T00:57:48;11.13;;;4.70;;
1682;SDS011;13252;53.596;10.060;2022-07-09T01:00:17;13.60;;;4.80;;
1682;SDS011;13252;53.596;10.060;2022-07-09T01:02:45;15.77;;;5.40;;
1682;SDS011;13252;53.596;10.060;2022-07-09T01:05:15;14.00;;;5.60;;
1682;SDS011;13252;53.596;10.060;2022-07-09T01:07:43;12.70;;;5.10;;
1682;SDS011;13252;53.596;10.060;2022-07-09T01:10:10;17.90;;;5.40;;
1682;SDS011;13252;53.596;10.060;2022-07-09T01:12:38;14.57;;;6.10;;
1682;SDS011;13252;53.596;10.060;2022-07-09T01:15:06;13.20;;;5.00;;
1682;SDS011;13252;53.596;10.060;2022-07-09T01:17:38;25.07;;;5.40;;
1682;SDS011;13252;53.596;10.060;2022-07-09T01:20:06;11.73;;;5.13;;
1682;SDS011;13252;53.596;10.060;2022-07-09T01:22:36;12.90;;;5.20;;
1682;SDS011;13252;53.596;10.060;2022-07-09T01:25:05;12.40;;;4.50;;
1682;SDS011;13252;53.596;10.060;2022-07-09T01:27:35;9.97;;;4.83;;
1682;SDS011;13252;53.596;10.060;2022-07-09T01:30:04;12.53;;;4.50;;
1682;SDS011;13252;53.596;10.060;2022-07-09T01:32:32;19.83;;;6.00;;
1682;SDS011;13252;53.596;10.060;2022-07-09T01:35:00;11.50;;;5.60;;
1682;SDS011;13252;53.596;10.060;2022-07-09T01:37:27;10.63;;;4.90;;
1682;SDS011;13252;53.596;10.060;2022-07-09T01:39:57;15.43;;;4.50;;
1682;SDS011;13252;53.596;10.060;2022-07-09T01:42:24;18.70;;;5.70;;
1682;SDS011;13252;53.596;10.060;2022-07-09T01:44:52;12.77;;;4.80;;
1682;SDS011;13252;53.596;10.060;2022-07-09T01:47:20;15.90;;;4.43;;
1682;SDS011;13252;53.596;10.060;2022-07-09T01:49:47;12.10;;;4.50;;
1682;SDS011;13252;53.596;10.060;2022-07-09T01:52:15;15.60;;;6.57;;
1682;SDS011;13252;53.596;10.060;2022-07-09T01:54:43;17.00;;;4.70;;
1682;SDS011;13252;53.596;10.060;2022-07-09T01:57:11;14.30;;;5.90;;
1682;SDS011;13252;53.596;10.060;2022-07-09T01:59:39;17.13;;;6.13;;
1682;SDS011;13252;53.596;10.060;2022-07-09T02:02:07;16.23;;;5.23;;
1682;SDS011;13252;53.596;10.060;2022-07-09T02:04:35;15.53;;;5.90;;
1682;SDS011;13252;53.596;10.060;2022-07-09T02:07:03;18.17;;;5.60;;
1682;SDS011;13252;53.596;10.060;2022-07-09T02:09:31;14.10;;;5.27;;
1682;SDS011;13252;53.596;10.060;2022-07-09T02:11:58;11.60;;;5.33;;
1682;SDS011;13252;53.596;10.060;2022-07-09T02:14:27;16.87;;;5.10;;
1682;SDS011;13252;53.596;10.060;2022-07-09T02:16:55;14.70;;;5.80;;
1682;SDS011;13252;53.596;10.060;2022-07-09T02:19:23;15.57;;;5.17;;
1682;SDS011;13252;53.596;10.060;2022-07-09T02:21:50;14.50;;;5.67;;
1682;SDS011;13252;53.596;10.060;2022-07-09T02:24:18;16.10;;;5.43;;
1682;SDS011;13252;53.596;10.060;2022-07-09T02:26:46;13.73;;;5.40;;
1682;SDS011;13252;53.596;10.060;2022-07-09T02:29:14;18.67;;;5.93;;
1682;SDS011;13252;53.596;10.060;2022-07-09T02:31:42;16.47;;;5.40;;
1682;SDS011;13252;53.596;10.060;2022-07-09T02:34:10;13.23;;;5.10;;
1682;SDS011;13252;53.596;10.060;2022-07-09T02:36:38;15.63;;;5.47;;
1682;SDS011;13252;53.596;10.060;2022-07-09T02:39:06;17.27;;;5.00;;
1682;SDS011;13252;53.596;10.060;2022-07-09T02:41:33;16.60;;;4.90;;
1682;SDS011;13252;53.596;10.060;2022-07-09T02:44:01;16.80;;;5.63;;
1682;SDS011;13252;53.596;10.060;2022-07-09T02:46:29;15.80;;;5.50;;
1682;SDS011;13252;53.596;10.060;2022-07-09T02:48:58;14.40;;;4.63;;
1682;SDS011;13252;53.596;10.060;2022-07-09T02:51:25;16.10;;;5.33;;
1682;SDS011;13252;53.596;10.060;2022-07-09T02:53:53;18.57;;;5.40;;
1682;SDS011;13252;53.596;10.060;2022-07-09T02:56:20;21.30;;;5.40;;
1682;SDS011;13252;53.596;10.060;2022-07-09T02:58:48;16.60;;;5.53;;
1682;SDS011;13252;53.596;10.060;2022-07-09T03:01:16;11.17;;;4.50;;
1682;SDS011;13252;53.596;10.060;2022-07-09T03:03:44;12.97;;;5.17;;
1682;SDS011;13252;53.596;10.060;2022-07-09T03:06:13;13.33;;;4.90;;
1682;SDS011;13252;53.596;10.060;2022-07-09T03:08:41;13.33;;;5.47;;
1682;SDS011;13252;53.596;10.060;2022-07-09T03:11:09;19.03;;;4.87;;
1682;SDS011;13252;53.596;10.060;2022-07-09T03:13:37;16.80;;;5.30;;
1682;SDS011;13252;53.596;10.060;2022-07-09T03:16:05;15.07;;;5.43;;
1682;SDS011;13252;53.596;10.060;2022-07-09T03:18:33;13.60;;;5.03;;
1682;SDS011;13252;53.596;10.060;2022-07-09T03:21:01;17.53;;;4.13;;
1682;SDS011;13252;53.596;10.060;2022-07-09T03:23:30;15.60;;;4.97;;
1682;SDS011;13252;53.596;10.060;2022-07-09T03:25:58;11.97;;;4.90;;
1682;SDS011;13252;53.596;10.060;2022-07-09T03:28:25;11.73;;;4.33;;
1682;SDS011;13252;53.596;10.060;2022-07-09T03:30:53;16.00;;;7.10;;
1682;SDS011;13252;53.596;10.060;2022-07-09T03:33:22;17.67;;;5.23;;
1682;SDS011;13252;53.596;10.060;2022-07-09T03:35:49;12.23;;;4.47;;
1682;SDS011;13252;53.596;10.060;2022-07-09T03:38:17;12.90;;;4.53;;
1682;SDS011;13252;53.596;10.060;2022-07-09T03:40:46;12.70;;;5.30;;
1682;SDS011;13252;53.596;10.060;2022-07-09T03:43:14;14.10;;;4.63;;
1682;SDS011;13252;53.596;10.060;2022-07-09T03:45:41;13.90;;;5.20;;
1682;SDS011;13252;53.596;10.060;2022-07-09T03:48:10;9.87;;;4.70;;
1682;SDS011;13252;53.596;10.060;2022-07-09T03:50:37;10.53;;;5.10;;
1682;SDS011;13252;53.596;10.060;2022-07-09T03:53:05;15.37;;;5.03;;
1682;SDS011;13252;53.596;10.060;2022-07-09T03:55:33;13.77;;;4.87;;
1682;SDS011;13252;53.596;10.060;2022-07-09T03:58:02;18.10;;;5.60;;
1682;SDS011;13252;53.596;10.060;2022-07-09T04:00:30;15.80;;;5.67;;
1682;SDS011;13252;53.596;10.060;2022-07-09T04:02:57;17.13;;;5.20;;
1682;SDS011;13252;53.596;10.060;2022-07-09T04:05:25;15.97;;;5.70;;
1682;SDS011;13252;53.596;10.060;2022-07-09T04:07:53;17.73;;;5.40;;
1682;SDS011;13252;53.596;10.060;2022-07-09T04:10:20;25.90;;;6.07;;
1682;SDS011;13252;53.596;10.060;2022-07-09T04:12:48;13.40;;;5.80;;
1682;SDS011;13252;53.596;10.060;2022-07-09T04:15:17;20.63;;;6.93;;
1682;SDS011;13252;53.596;10.060;2022-07-09T04:17:45;14.00;;;5.80;;
1682;SDS011;13252;53.596;10.060;2022-07-09T04:20:13;17.00;;;6.50;;
1682;SDS011;13252;53.596;10.060;2022-07-09T04:22:40;12.50;;;5.37;;
1682;SDS011;13252;53.596;10.060;2022-07-09T04:25:08;12.40;;;6.10;;
1682;SDS011;13252;53.596;10.060;2022-07-09T04:27:36;16.87;;;6.40;;
1682;SDS011;13252;53.596;10.060;2022-07-09T04:30:06;14.70;;;5.50;;
1682;SDS011;13252;53.596;10.060;2022-07-09T04:32:36;17.13;;;5.90;;
1682;SDS011;13252;53.596;10.060;2022-07-09T04:35:04;19.83;;;5.50;;
1682;SDS011;13252;53.596;10.060;2022-07-09T04:37:32;12.60;;;6.10;;
1682;SDS011;13252;53.596;10.060;2022-07-09T04:40:00;16.13;;;5.70;;
1682;SDS011;13252;53.596;10.060;2022-07-09T04:42:28;13.20;;;5.23;;
1682;SDS011;13252;53.596;10.060;2022-07-09T04:44:55;22.67;;;6.30;;
1682;SDS011;13252;53.596;10.060;2022-07-09T04:47:24;11.40;;;4.90;;
1682;SDS011;13252;53.596;10.060;2022-07-09T04:49:53;14.20;;;4.70;;
1682;SDS011;13252;53.596;10.060;2022-07-09T04:52:20;8.90;;;4.70;;
1682;SDS011;13252;53.596;10.060;2022-07-09T04:54:52;19.30;;;5.37;;
1682;SDS011;13252;53.596;10.060;2022-07-09T04:57:20;11.67;;;5.40;;
1682;SDS011;13252;53.596;10.060;2022-07-09T04:59:48;9.73;;;4.63;;
1682;SDS011;13252;53.596;10.060;2022-07-09T05:02:15;13.80;;;4.77;;
1682;SDS011;13252;53.596;10.060;2022-07-09T05:04:43;11.03;;;3.73;;
1682;SDS011;13252;53.596;10.060;2022-07-09T05:07:12;9.83;;;4.20;;
1682;SDS011;13252;53.596;10.060;2022-07-09T05:09:40;13.70;;;6.00;;
1682;SDS011;13252;53.596;10.060;2022-07-09T05:12:08;14.13;;;4.50;;
1682;SDS011;13252;53.596;10.060;2022-07-09T05:14:36;9.93;;;4.20;;
1682;SDS011;13252;53.596;10.060;2022-07-09T05:17:04;7.93;;;4.00;;
1682;SDS011;13252;53.596;10.060;2022-07-09T05:19:32;13.10;;;4.93;;
1682;SDS011;13252;53.596;10.060;2022-07-09T05:22:00;8.37;;;3.73;;
1682;SDS011;13252;53.596;10.060;2022-07-09T05:24:29;15.23;;;3.57;;
1682;SDS011;13252;53.596;10.060;2022-07-09T05:26:57;13.90;;;4.00;;
1682;SDS011;13252;53.596;10.060;2022-07-09T05:29:25;11.87;;;3.93;;
1682;SDS011;13252;53.596;10.060;2022-07-09T05:31:52;7.97;;;3.47;;
1682;SDS011;13252;53.596;10.060;2022-07-09T05:34:20;9.57;;;4.53;;
1682;SDS011;13252;53.596;10.060;2022-07-09T05:36:48;8.40;;;3.97;;
1682;SDS011;13252;53.596;10.060;2022-07-09T05:39:17;13.33;;;3.93;;
1682;SDS011;13252;53.596;10.060;2022-07-09T05:41:47;7.37;;;3.67;;
1682;SDS011;13252;53.596;10.060;2022-07-09T05:44:14;9.37;;;4.13;;
1682;SDS011;13252;53.596;10.060;2022-07-09T05:46:49;11.80;;;4.20;;
1682;SDS011;13252;53.596;10.060;2022-07-09T05:49:17;10.00;;;4.00;;
1682;SDS011;13252;53.596;10.060;2022-07-09T05:51:45;12.27;;;4.17;;
1682;SDS011;13252;53.596;10.060;2022-07-09T05:54:12;11.50;;;3.73;;
1682;SDS011;13252;53.596;10.060;2022-07-09T05:56:40;8.37;;;4.13;;
1682;SDS011;13252;53.596;10.060;2022-07-09T05:59:09;9.00;;;3.27;;
1682;SDS011;13252;53.596;10.060;2022-07-09T06:01:37;8.70;;;4.37;;
1682;SDS011;13252;53.596;10.060;2022-07-09T06:04:08;4.30;;;2.90;;
1682;SDS011;13252;53.596;10.060;2022-07-09T06:06:36;10.10;;;3.57;;
1682;SDS011;13252;53.596;10.060;2022-07-09T06:09:04;10.90;;;4.23;;
1682;SDS011;13252;53.596;10.060;2022-07-09T06:11:31;9.70;;;4.33;;
1682;SDS011;13252;53.596;10.060;2022-07-09T06:13:59;8.40;;;3.87;;
1682;SDS011;13252;53.596;10.060;2022-07-09T06:16:28;12.20;;;3.73;;
1682;SDS011;13252;53.596;10.060;2022-07-09T06:18:56;9.80;;;4.17;;
1682;SDS011;13252;53.596;10.060;2022-07-09T06:21:24;12.67;;;3.90;;
1682;SDS011;13252;53.596;10.060;2022-07-09T06:23:52;12.43;;;3.93;;
1682;SDS011;13252;53.596;10.060;2022-07-09T06:26:19;9.83;;;4.77;;
1682;SDS011;13252;53.596;10.060;2022-07-09T06:28:47;12.57;;;4.67;;
1682;SDS011;13252;53.596;10.060;2022-07-09T06:31:15;19.40;;;7.07;;
1682;SDS011;13252;53.596;10.060;2022-07-09T06:33:44;11.13;;;4.90;;
1682;SDS011;13252;53.596;10.060;2022-07-09T06:36:12;21.70;;;4.80;;
1682;SDS011;13252;53.596;10.060;2022-07-09T06:38:39;11.03;;;4.40;;
1682;SDS011;13252;53.596;10.060;2022-07-09T06:41:21;10.77;;;4.00;;
1682;SDS011;13252;53.596;10.060;2022-07-09T06:43:48;8.40;;;4.43;;
1682;SDS011;13252;53.596;10.060;2022-07-09T06:46:16;6.97;;;3.97;;
1682;SDS011;13252;53.596;10.060;2022-07-09T06:48:45;7.83;;;3.70;;
1682;SDS011;13252;53.596;10.060;2022-07-09T06:51:13;8.60;;;3.53;;
1682;SDS011;13252;53.596;10.060;2022-07-09T06:53:40;7.63;;;3.50;;
1682;SDS011;13252;53.596;10.060;2022-07-09T06:56:08;15.80;;;4.00;;
1682;SDS011;13252;53.596;10.060;2022-07-09T06:58:36;9.07;;;4.00;;
1682;SDS011;13252;53.596;10.060;2022-07-09T07:01:03;6.33;;;3.40;;
1682;SDS011;13252;53.596;10.060;2022-07-09T07:03:31;6.43;;;2.93;;
1682;SDS011;13252;53.596;10.060;2022-07-09T07:06:00;8.03;;;3.40;;
1682;SDS011;13252;53.596;10.060;2022-07-09T07:08:28;6.13;;;3.07;;
1682;SDS011;13252;53.596;10.060;2022-07-09T07:10:55;6.90;;;2.47;;
1682;SDS011;13252;53.596;10.060;2022-07-09T07:13:23;6.50;;;2.83;;
1682;SDS011;13252;53.596;10.060;2022-07-09T07:15:50;7.40;;;2.67;;
1682;SDS011;13252;53.596;10.060;2022-07-09T07:18:18;10.23;;;2.77;;
1682;SDS011;13252;53.596;10.060;2022-07-09T07:20:46;7.87;;;3.60;;
1682;SDS011;13252;53.596;10.060;2022-07-09T07:23:15;6.10;;;2.70;;
1682;SDS011;13252;53.596;10.060;2022-07-09T07:25:43;8.77;;;2.90;;
1682;SDS011;13252;53.596;10.060;2022-07-09T07:28:11;12.30;;;2.73;;
1682;SDS011;13252;53.596;10.060;2022-07-09T07:30:38;5.83;;;2.77;;
1682;SDS011;13252;53.596;10.060;2022-07-09T07:33:06;9.13;;;3.27;;
1682;SDS011;13252;53.596;10.060;2022-07-09T07:35:33;4.73;;;2.57;;
1682;SDS011;13252;53.596;10.060;2022-07-09T07:38:01;6.30;;;2.83;;
1682;SDS011;13252;53.596;10.060;2022-07-09T07:40:30;11.57;;;2.63;;
1682;SDS011;13252;53.596;10.060;2022-07-09T07:42:58;9.90;;;3.10;;
1682;SDS011;13252;53.596;10.060;2022-07-09T07:45:26;6.73;;;3.13;;
1682;SDS011;13252;53.596;10.060;2022-07-09T07:47:53;7.17;;;2.47;;
1682;SDS011;13252;53.596;10.060;2022-07-09T07:50:21;9.63;;;2.90;;
1682;SDS011;13252;53.596;10.060;2022-07-09T07:52:49;5.50;;;3.00;;
1682;SDS011;13252;53.596;10.060;2022-07-09T07:55:17;6.83;;;3.00;;
1682;SDS011;13252;53.596;10.060;2022-07-09T07:57:46;13.13;;;2.80;;
1682;SDS011;13252;53.596;10.060;2022-07-09T08:00:13;6.13;;;2.60;;
1682;SDS011;13252;53.596;10.060;2022-07-09T08:02:42;7.97;;;2.87;;
1682;SDS011;13252;53.596;10.060;2022-07-09T08:05:10;5.97;;;2.70;;
1682;SDS011;13252;53.596;10.060;2022-07-09T08:07:37;9.10;;;2.33;;
1682;SDS011;13252;53.596;10.060;2022-07-09T08:10:05;6.70;;;2.27;;
1682;SDS011;13252;53.596;10.060;2022-07-09T08:12:34;8.30;;;3.10;;
1682;SDS011;13252;53.596;10.060;2022-07-09T08:15:03;8.83;;;2.03;;
1682;SDS011;13252;53.596;10.060;2022-07-09T08:17:32;6.80;;;2.20;;
1682;SDS011;13252;53.596;10.060;2022-07-09T08:19:59;4.97;;;2.13;;
1682;SDS011;13252;53.596;10.060;2022-07-09T08:22:27;12.87;;;2.50;;
1682;SDS011;13252;53.596;10.060;2022-07-09T08:24:54;7.80;;;2.63;;
1682;SDS011;13252;53.596;10.060;2022-07-09T08:27:22;11.23;;;2.47;;
1682;SDS011;13252;53.596;10.060;2022-07-09T08:29:50;6.83;;;3.43;;
1682;SDS011;13252;53.596;10.060;2022-07-09T08:32:19;8.63;;;2.53;;
1682;SDS011;13252;53.596;10.060;2022-07-09T08:34:47;11.13;;;2.50;;
1682;SDS011;13252;53.596;10.060;2022-07-09T08:37:14;4.63;;;2.10;;
1682;SDS011;13252;53.596;10.060;2022-07-09T08:39:42;5.10;;;2.60;;
1682;SDS011;13252;53.596;10.060;2022-07-09T08:42:10;8.83;;;2.93;;
1682;SDS011;13252;53.596;10.060;2022-07-09T08:44:38;4.10;;;2.03;;
1682;SDS011;13252;53.596;10.060;2022-07-09T08:47:09;4.70;;;1.70;;
1682;SDS011;13252;53.596;10.060;2022-07-09T08:49:39;6.57;;;2.13;;
1682;SDS011;13252;53.596;10.060;2022-07-09T08:52:07;4.33;;;2.00;;
1682;SDS011;13252;53.596;10.060;2022-07-09T08:54:35;8.10;;;2.00;;
1682;SDS011;13252;53.596;10.060;2022-07-09T08:57:04;6.60;;;1.60;;
1682;SDS011;13252;53.596;10.060;2022-07-09T08:59:32;7.57;;;2.30;;
1682;SDS011;13252;53.596;10.060;2022-07-09T09:02:03;3.60;;;1.50;;
1682;SDS011;13252;53.596;10.060;2022-07-09T09:04:31;9.13;;;1.80;;
1682;SDS011;13252;53.596;10.060;2022-07-09T09:07:12;3.70;;;1.77;;
1682;SDS011;13252;53.596;10.060;2022-07-09T09:09:41;6.67;;;1.50;;
1682;SDS011;13252;53.596;10.060;2022-07-09T09:12:09;4.50;;;1.00;;
1682;SDS011;13252;53.596;10.060;2022-07-09T09:14:37;4.93;;;1.90;;
1682;SDS011;13252;53.596;10.060;2022-07-09T09:17:05;10.67;;;1.43;;
1682;SDS011;13252;53.596;10.060;2022-07-09T09:19:35;3.50;;;1.10;;
1682;SDS011;13252;53.596;10.060;2022-07-09T09:22:03;2.73;;;1.10;;
1682;SDS011;13252;53.596;10.060;2022-07-09T09:24:33;5.20;;;1.37;;
1682;SDS011;13252;53.596;10.060;2022-07-09T09:27:01;3.50;;;1.10;;
1682;SDS011;13252;53.596;10.060;2022-07-09T09:29:29;3.80;;;1.17;;
1682;SDS011;13252;53.596;10.060;2022-07-09T09:31:57;6.47;;;1.47;;
1682;SDS011;13252;53.596;10.060;2022-07-09T09:34:25;12.10;;;1.47;;
1682;SDS011;13252;53.596;10.060;2022-07-09T09:36:52;8.10;;;1.43;;
1682;SDS011;13252;53.596;10.060;2022-07-09T09:39:22;7.27;;;2.07;;
1682;SDS011;13252;53.596;10.060;2022-07-09T09:41:53;8.40;;;1.50;;
1682;SDS011;13252;53.596;10.060;2022-07-09T09:44:22;6.87;;;1.80;;
1682;SDS011;13252;53.596;10.060;2022-07-09T09:46:52;4.40;;;1.57;;
1682;SDS011;13252;53.596;10.060;2022-07-09T09:49:20;5.30;;;2.00;;
1682;SDS011;13252;53.596;10.060;2022-07-09T09:51:49;8.50;;;1.57;;
1682;SDS011;13252;53.596;10.060;2022-07-09T09:54:20;7.13;;;1.67;;
1682;SDS011;13252;53.596;10.060;2022-07-09T09:56:48;4.50;;;1.40;;
1682;SDS011;13252;53.596;10.060;2022-07-09T09:59:18;4.70;;;1.40;;
1682;SDS011;13252;53.596;10.060;2022-07-09T10:01:46;7.97;;;1.43;;
1682;SDS011;13252;53.596;10.060;2022-07-09T10:04:14;3.57;;;1.23;;
1682;SDS011;13252;53.596;10.060;2022-07-09T10:06:42;3.90;;;1.20;;
1682;SDS011;13252;53.596;10.060;2022-07-09T10:09:11;8.00;;;1.57;;
1682;SDS011;13252;53.596;10.060;2022-07-09T10:11:40;4.33;;;1.43;;
1682;SDS011;13252;53.596;10.060;2022-07-09T10:14:14;5.30;;;1.30;;
1682;SDS011;13252;53.596;10.060;2022-07-09T10:16:44;4.10;;;1.10;;
1682;SDS011;13252;53.596;10.060;2022-07-09T10:19:21;5.00;;;1.57;;
1682;SDS011;13252;53.596;10.060;2022-07-09T10:21:51;5.13;;;1.73;;
1682;SDS011;13252;53.596;10.060;2022-07-09T10:24:23;3.70;;;1.30;;
1682;SDS011;13252;53.596;10.060;2022-07-09T10:26:52;4.67;;;1.17;;
1682;SDS011;13252;53.596;10.060;2022-07-09T10:29:20;7.27;;;1.77;;
1682;SDS011;13252;53.596;10.060;2022-07-09T10:31:51;7.80;;;1.23;;
1682;SDS011;13252;53.596;10.060;2022-07-09T10:34:23;5.10;;;1.27;;
1682;SDS011;13252;53.596;10.060;2022-07-09T10:37:12;9.27;;;1.70;;
1682;SDS011;13252;53.596;10.060;2022-07-09T10:39:40;5.87;;;1.57;;
1682;SDS011;13252;53.596;10.060;2022-07-09T10:42:17;6.23;;;1.67;;
1682;SDS011;13252;53.596;10.060;2022-07-09T10:44:45;5.03;;;1.07;;
1682;SDS011;13252;53.596;10.060;2022-07-09T10:47:17;3.23;;;1.30;;
1682;SDS011;13252;53.596;10.060;2022-07-09T10:49:45;4.87;;;1.53;;
1682;SDS011;13252;53.596;10.060;2022-07-09T10:52:12;6.63;;;1.43;;
1682;SDS011;13252;53.596;10.060;2022-07-09T10:54:46;4.20;;;1.00;;
1682;SDS011;13252;53.596;10.060;2022-07-09T10:57:15;5.50;;;1.47;;
1682;SDS011;13252;53.596;10.060;2022-07-09T10:59:46;4.20;;;1.00;;
1682;SDS011;13252;53.596;10.060;2022-07-09T11:02:19;5.40;;;1.80;;
1682;SDS011;13252;53.596;10.060;2022-07-09T11:04:48;5.83;;;1.60;;
1682;SDS011;13252;53.596;10.060;2022-07-09T11:07:20;4.07;;;1.23;;
1682;SDS011;13252;53.596;10.060;2022-07-09T11:09:49;4.93;;;1.50;;
1682;SDS011;13252;53.596;10.060;2022-07-09T11:12:17;3.50;;;1.20;;
1682;SDS011;13252;53.596;10.060;2022-07-09T11:14:46;5.47;;;1.67;;
1682;SDS011;13252;53.596;10.060;2022-07-09T11:17:14;4.63;;;1.17;;
1682;SDS011;13252;53.596;10.060;2022-07-09T11:19:44;2.83;;;0.90;;
1682;SDS011;13252;53.596;10.060;2022-07-09T11:22:12;4.03;;;1.47;;
1682;SDS011;13252;53.596;10.060;2022-07-09T11:24:39;5.40;;;1.37;;
1682;SDS011;13252;53.596;10.060;2022-07-09T11:27:07;4.27;;;1.20;;
1682;SDS011;13252;53.596;10.060;2022-07-09T11:29:36;9.87;;;1.80;;
1682;SDS011;13252;53.596;10.060;2022-07-09T11:32:04;4.23;;;1.00;;
1682;SDS011;13252;53.596;10.060;2022-07-09T11:34:32;4.13;;;0.90;;
1682;SDS011;13252;53.596;10.060;2022-07-09T11:37:01;3.80;;;1.30;;
1682;SDS011;13252;53.596;10.060;2022-07-09T11:39:31;4.87;;;1.60;;
1682;SDS011;13252;53.596;10.060;2022-07-09T11:42:00;4.23;;;1.27;;
1682;SDS011;13252;53.596;10.060;2022-07-09T11:44:28;3.83;;;1.03;;
1682;SDS011;13252;53.596;10.060;2022-07-09T11:47:05;6.10;;;2.00;;
1682;SDS011;13252;53.596;10.060;2022-07-09T11:49:35;3.67;;;1.80;;
1682;SDS011;13252;53.596;10.060;2022-07-09T11:52:15;4.97;;;1.20;;
1682;SDS011;13252;53.596;10.060;2022-07-09T11:54:54;7.10;;;1.10;;
1682;SDS011;13252;53.596;10.060;2022-07-09T11:57:22;2.40;;;1.10;;
1682;SDS011;13252;53.596;10.060;2022-07-09T11:59:50;6.70;;;1.00;;
1682;SDS011;13252;53.596;10.060;2022-07-09T12:02:24;2.90;;;0.93;;
1682;SDS011;13252;53.596;10.060;2022-07-09T12:04:53;3.23;;;1.10;;
1682;SDS011;13252;53.596;10.060;2022-07-09T12:07:22;3.40;;;1.10;;
1682;SDS011;13252;53.596;10.060;2022-07-09T12:09:59;7.10;;;1.40;;
1682;SDS011;13252;53.596;10.060;2022-07-09T12:12:28;4.80;;;1.40;;
1682;SDS011;13252;53.596;10.060;2022-07-09T12:14:55;4.63;;;0.90;;
1682;SDS011;13252;53.596;10.060;2022-07-09T12:17:28;3.93;;;1.23;;
1682;SDS011;13252;53.596;10.060;2022-07-09T12:19:57;2.80;;;1.10;;
1682;SDS011;13252;53.596;10.060;2022-07-09T12:22:27;4.67;;;1.50;;
1682;SDS011;13252;53.596;10.060;2022-07-09T12:24:54;3.83;;;1.40;;
1682;SDS011;13252;53.596;10.060;2022-07-09T12:27:22;3.07;;;0.90;;
1682;SDS011;13252;53.596;10.060;2022-07-09T12:29:50;4.80;;;1.10;;
1682;SDS011;13252;53.596;10.060;2022-07-09T12:32:17;5.60;;;1.40;;
1682;SDS011;13252;53.596;10.060;2022-07-09T12:34:45;3.20;;;0.80;;
1682;SDS011;13252;53.596;10.060;2022-07-09T12:37:13;4.07;;;1.27;;
1682;SDS011;13252;53.596;10.060;2022-07-09T12:39:42;6.10;;;1.40;;
1682;SDS011;13252;53.596;10.060;2022-07-09T12:42:16;4.60;;;1.33;;
1682;SDS011;13252;53.596;10.060;2022-07-09T12:44:44;4.50;;;1.27;;
1682;SDS011;13252;53.596;10.060;2022-07-09T12:47:12;5.10;;;1.50;;
1682;SDS011;13252;53.596;10.060;2022-07-09T12:49:41;5.80;;;2.00;;
1682;SDS011;13252;53.596;10.060;2022-07-09T12:52:09;6.07;;;1.60;;
1682;SDS011;13252;53.596;10.060;2022-07-09T12:54:37;7.77;;;1.87;;
1682;SDS011;13252;53.596;10.060;2022-07-09T12:57:06;6.90;;;1.63;;
1682;SDS011;13252;53.596;10.060;2022-07-09T12:59:35;8.50;;;1.63;;
1682;SDS011;13252;53.596;10.060;2022-07-09T13:02:04;7.70;;;2.00;;
1682;SDS011;13252;53.596;10.060;2022-07-09T13:04:32;5.50;;;1.63;;
1682;SDS011;13252;53.596;10.060;2022-07-09T13:07:00;5.53;;;1.53;;
1682;SDS011;13252;53.596;10.060;2022-07-09T13:09:29;8.90;;;1.73;;
1682;SDS011;13252;53.596;10.060;2022-07-09T13:11:57;5.40;;;1.50;;
1682;SDS011;13252;53.596;10.060;2022-07-09T13:14:26;5.60;;;1.20;;
1682;SDS011;13252;53.596;10.060;2022-07-09T13:16:54;9.00;;;1.50;;
1682;SDS011;13252;53.596;10.060;2022-07-09T13:19:42;5.13;;;1.40;;
1682;SDS011;13252;53.596;10.060;2022-07-09T13:22:09;5.97;;;1.13;;
1682;SDS011;13252;53.596;10.060;2022-07-09T13:24:37;4.17;;;1.20;;
1682;SDS011;13252;53.596;10.060;2022-07-09T13:27:05;6.90;;;1.53;;
1682;SDS011;13252;53.596;10.060;2022-07-09T13:29:37;7.07;;;1.50;;
1682;SDS011;13252;53.596;10.060;2022-07-09T13:32:06;5.00;;;1.33;;
1682;SDS011;13252;53.596;10.060;2022-07-09T13:34:34;3.83;;;1.20;;
1682;SDS011;13252;53.596;10.060;2022-07-09T13:37:02;5.33;;;1.10;;
1682;SDS011;13252;53.596;10.060;2022-07-09T13:39:30;4.60;;;1.10;;
1682;SDS011;13252;53.596;10.060;2022-07-09T13:41:58;3.67;;;1.20;;
1682;SDS011;13252;53.596;10.060;2022-07-09T13:44:25;6.63;;;1.40;;
1682;SDS011;13252;53.596;10.060;2022-07-09T13:46:54;5.70;;;1.30;;
1682;SDS011;13252;53.596;10.060;2022-07-09T13:49:22;4.80;;;1.30;;
1682;SDS011;13252;53.596;10.060;2022-07-09T13:51:49;7.70;;;1.43;;
1682;SDS011;13252;53.596;10.060;2022-07-09T13:54:17;2.90;;;0.97;;
1682;SDS011;13252;53.596;10.060;2022-07-09T13:56:45;4.97;;;1.10;;
1682;SDS011;13252;53.596;10.060;2022-07-09T13:59:13;4.33;;;1.40;;
1682;SDS011;13252;53.596;10.060;2022-07-09T14:01:40;11.10;;;1.47;;
1682;SDS011;13252;53.596;10.060;2022-07-09T14:04:09;4.77;;;1.27;;
1682;SDS011;13252;53.596;10.060;2022-07-09T14:06:37;6.70;;;1.23;;
1682;SDS011;13252;53.596;10.060;2022-07-09T14:09:12;5.27;;;0.97;;
1682;SDS011;13252;53.596;10.060;2022-07-09T14:11:40;4.23;;;1.27;;
1682;SDS011;13252;53.596;10.060;2022-07-09T14:14:07;7.27;;;1.37;;
1682;SDS011;13252;53.596;10.060;2022-07-09T14:16:35;4.10;;;1.20;;
1682;SDS011;13252;53.596;10.060;2022-07-09T14:19:03;7.70;;;1.60;;
1682;SDS011;13252;53.596;10.060;2022-07-09T14:21:32;8.13;;;2.00;;
1682;SDS011;13252;53.596;10.060;2022-07-09T14:24:00;5.60;;;1.33;;
1682;SDS011;13252;53.596;10.060;2022-07-09T14:26:27;4.80;;;1.10;;
1682;SDS011;13252;53.596;10.060;2022-07-09T14:28:56;5.60;;;1.10;;
1682;SDS011;13252;53.596;10.060;2022-07-09T14:31:24;5.00;;;1.20;;
1682;SDS011;13252;53.596;10.060;2022-07-09T14:33:52;3.60;;;0.97;;
1682;SDS011;13252;53.596;10.060;2022-07-09T14:36:21;5.73;;;1.40;;
1682;SDS011;13252;53.596;10.060;2022-07-09T14:38:50;8.77;;;1.40;;
1682;SDS011;13252;53.596;10.060;2022-07-09T14:41:18;5.47;;;1.17;;
1682;SDS011;13252;53.596;10.060;2022-07-09T14:43:45;8.87;;;1.83;;
1682;SDS011;13252;53.596;10.060;2022-07-09T14:46:13;7.70;;;1.60;;
1682;SDS011;13252;53.596;10.060;2022-07-09T14:48:40;7.43;;;1.77;;
1682;SDS011;13252;53.596;10.060;2022-07-09T14:51:08;7.00;;;1.50;;